sensor_id;sensor_type;location;lat;lon;timestamp;P1;durP1;ratioP1;P2;durP2;ratioP2
53313;SDS011;39202;51.468;7.146;2022-09-09T00:04:22;0.50;;;0.50;;
53313;SDS011;39202;51.468;7.146;2022-09-09T00:09:28;0.68;;;0.68;;
53313;SDS011;39202;51.468;7.146;2022-09-09T00:14:37;0.60;;;0.60;;
53313;SDS011;39202;51.468;7.146;2022-09-09T00:19:48;0.68;;;0.68;;
53313;SDS011;39202;51.468;7.146;2022-09-09T00:25:00;0.60;;;0.60;;
53313;SDS011;39202;51.468;7.146;2022-09-09T00:30:16;0.85;;;0.60;;
53313;SDS011;39202;51.468;7.146;2022-09-09T00:35:22;0.60;;;0.60;;
53313;SDS011;39202;51.468;7.146;2022-09-09T00:40:29;0.50;;;0.50;;
53313;SDS011;39202;51.468;7.146;2022-09-09T00:45:45;0.60;;;0.60;;
53313;SDS011;39202;51.468;7.146;2022-09-09T00:50:59;0.60;;;0.60;;
53313;SDS011;39202;51.468;7.146;2022-09-09T00:56:12;0.60;;;0.60;;
53313;SDS011;39202;51.468;7.146;2022-09-09T01:01:16;0.60;;;0.60;;
53313;SDS011;39202;51.468;7.146;2022-09-09T01:06:20;0.50;;;0.50;;
53313;SDS011;39202;51.468;7.146;2022-09-09T01:11:29;0.60;;;0.60;;
53313;SDS011;39202;51.468;7.146;2022-09-09T01:16:38;0.50;;;0.50;;
53313;SDS011;39202;51.468;7.146;2022-09-09T01:21:43;0.50;;;0.50;;
53313;SDS011;39202;51.468;7.146;2022-09-09T01:26:56;0.70;;;0.70;;
53313;SDS011;39202;51.468;7.146;2022-09-09T01:32:00;0.60;;;0.60;;
53313;SDS011;39202;51.468;7.146;2022-09-09T01:37:03;0.50;;;0.50;;
53313;SDS011;39202;51.468;7.146;2022-09-09T01:42:09;0.60;;;0.60;;
53313;SDS011;39202;51.468;7.146;2022-09-09T01:47:15;0.60;;;0.60;;
53313;SDS011;39202;51.468;7.146;2022-09-09T01:52:17;0.50;;;0.50;;
53313;SDS011;39202;51.468;7.146;2022-09-09T01:57:22;0.50;;;0.50;;
53313;SDS011;39202;51.468;7.146;2022-09-09T02:02:29;0.70;;;0.70;;
53313;SDS011;39202;51.468;7.146;2022-09-09T02:07:38;0.50;;;0.50;;
53313;SDS011;39202;51.468;7.146;2022-09-09T02:12:43;0.47;;;0.47;;
53313;SDS011;39202;51.468;7.146;2022-09-09T02:17:48;0.70;;;0.70;;
53313;SDS011;39202;51.468;7.146;2022-09-09T02:22:53;0.47;;;0.47;;
53313;SDS011;39202;51.468;7.146;2022-09-09T02:27:58;0.50;;;0.50;;
53313;SDS011;39202;51.468;7.146;2022-09-09T02:33:00;0.50;;;0.50;;
53313;SDS011;39202;51.468;7.146;2022-09-09T02:38:07;0.60;;;0.60;;
53313;SDS011;39202;51.468;7.146;2022-09-09T02:43:15;0.55;;;0.55;;
53313;SDS011;39202;51.468;7.146;2022-09-09T02:48:18;0.50;;;0.50;;
53313;SDS011;39202;51.468;7.146;2022-09-09T02:53:24;0.50;;;0.50;;
53313;SDS011;39202;51.468;7.146;2022-09-09T02:58:34;0.43;;;0.43;;
53313;SDS011;39202;51.468;7.146;2022-09-09T03:03:36;0.50;;;0.50;;
53313;SDS011;39202;51.468;7.146;2022-09-09T03:08:38;0.50;;;0.50;;
53313;SDS011;39202;51.468;7.146;2022-09-09T03:13:41;0.52;;;0.52;;
53313;SDS011;39202;51.468;7.146;2022-09-09T03:18:42;0.50;;;0.50;;
53313;SDS011;39202;51.468;7.146;2022-09-09T03:23:45;0.50;;;0.50;;
53313;SDS011;39202;51.468;7.146;2022-09-09T03:28:49;0.50;;;0.50;;
53313;SDS011;39202;51.468;7.146;2022-09-09T03:33:51;0.60;;;0.60;;
53313;SDS011;39202;51.468;7.146;2022-09-09T03:38:53;0.40;;;0.40;;
53313;SDS011;39202;51.468;7.146;2022-09-09T03:43:56;0.50;;;0.50;;
53313;SDS011;39202;51.468;7.146;2022-09-09T03:48:58;0.50;;;0.50;;
53313;SDS011;39202;51.468;7.146;2022-09-09T03:54:00;0.60;;;0.60;;
53313;SDS011;39202;51.468;7.146;2022-09-09T03:59:03;0.50;;;0.50;;
53313;SDS011;39202;51.468;7.146;2022-09-09T04:04:04;0.60;;;0.60;;
53313;SDS011;39202;51.468;7.146;2022-09-09T04:09:06;0.50;;;0.50;;
53313;SDS011;39202;51.468;7.146;2022-09-09T04:14:09;0.50;;;0.50;;
53313;SDS011;39202;51.468;7.146;2022-09-09T04:19:11;0.43;;;0.43;;
53313;SDS011;39202;51.468;7.146;2022-09-09T04:24:13;0.40;;;0.40;;
53313;SDS011;39202;51.468;7.146;2022-09-09T04:29:17;0.50;;;0.50;;
53313;SDS011;39202;51.468;7.146;2022-09-09T04:34:19;0.52;;;0.52;;
53313;SDS011;39202;51.468;7.146;2022-09-09T04:39:21;0.40;;;0.40;;
53313;SDS011;39202;51.468;7.146;2022-09-09T04:44:24;0.50;;;0.50;;
53313;SDS011;39202;51.468;7.146;2022-09-09T04:49:25;0.40;;;0.40;;
53313;SDS011;39202;51.468;7.146;2022-09-09T04:54:27;0.45;;;0.45;;
53313;SDS011;39202;51.468;7.146;2022-09-09T04:59:30;0.50;;;0.50;;
53313;SDS011;39202;51.468;7.146;2022-09-09T05:04:32;0.50;;;0.50;;
53313;SDS011;39202;51.468;7.146;2022-09-09T05:09:34;0.60;;;0.60;;
53313;SDS011;39202;51.468;7.146;2022-09-09T05:14:37;0.63;;;0.52;;
53313;SDS011;39202;51.468;7.146;2022-09-09T05:19:38;0.60;;;0.60;;
53313;SDS011;39202;51.468;7.146;2022-09-09T05:24:40;0.75;;;0.75;;
53313;SDS011;39202;51.468;7.146;2022-09-09T05:29:43;0.65;;;0.65;;
53313;SDS011;39202;51.468;7.146;2022-09-09T05:34:45;0.60;;;0.60;;
53313;SDS011;39202;51.468;7.146;2022-09-09T05:39:46;0.63;;;0.63;;
53313;SDS011;39202;51.468;7.146;2022-09-09T05:44:49;0.90;;;0.73;;
53313;SDS011;39202;51.468;7.146;2022-09-09T05:49:54;0.80;;;0.80;;
53313;SDS011;39202;51.468;7.146;2022-09-09T05:54:56;0.70;;;0.68;;
53313;SDS011;39202;51.468;7.146;2022-09-09T06:00:00;0.75;;;0.70;;
53313;SDS011;39202;51.468;7.146;2022-09-09T06:05:03;1.48;;;1.10;;
53313;SDS011;39202;51.468;7.146;2022-09-09T06:10:05;1.05;;;0.90;;
53313;SDS011;39202;51.468;7.146;2022-09-09T06:15:10;1.85;;;1.10;;
53313;SDS011;39202;51.468;7.146;2022-09-09T06:20:12;1.58;;;1.13;;
53313;SDS011;39202;51.468;7.146;2022-09-09T06:25:13;1.42;;;1.02;;
53313;SDS011;39202;51.468;7.146;2022-09-09T06:30:17;1.52;;;1.20;;
53313;SDS011;39202;51.468;7.146;2022-09-09T06:35:19;1.25;;;1.15;;
53313;SDS011;39202;51.468;7.146;2022-09-09T06:40:21;2.60;;;1.10;;
53313;SDS011;39202;51.468;7.146;2022-09-09T06:45:23;1.73;;;1.10;;
53313;SDS011;39202;51.468;7.146;2022-09-09T06:50:25;2.05;;;1.10;;
53313;SDS011;39202;51.468;7.146;2022-09-09T06:55:27;1.85;;;1.15;;
53313;SDS011;39202;51.468;7.146;2022-09-09T07:00:30;2.03;;;1.20;;
53313;SDS011;39202;51.468;7.146;2022-09-09T07:05:32;2.65;;;1.33;;
53313;SDS011;39202;51.468;7.146;2022-09-09T07:10:34;4.05;;;1.48;;
53313;SDS011;39202;51.468;7.146;2022-09-09T07:15:37;1.73;;;1.27;;
53313;SDS011;39202;51.468;7.146;2022-09-09T07:20:38;2.22;;;1.38;;
53313;SDS011;39202;51.468;7.146;2022-09-09T07:25:43;3.30;;;1.40;;
53313;SDS011;39202;51.468;7.146;2022-09-09T07:30:53;1.20;;;1.10;;
53313;SDS011;39202;51.468;7.146;2022-09-09T07:36:01;2.20;;;1.35;;
53313;SDS011;39202;51.468;7.146;2022-09-09T07:41:05;1.58;;;1.27;;
53313;SDS011;39202;51.468;7.146;2022-09-09T07:46:13;2.00;;;1.30;;
53313;SDS011;39202;51.468;7.146;2022-09-09T07:51:16;1.70;;;1.23;;
53313;SDS011;39202;51.468;7.146;2022-09-09T07:56:19;1.02;;;1.00;;
53313;SDS011;39202;51.468;7.146;2022-09-09T08:01:26;1.58;;;1.00;;
53313;SDS011;39202;51.468;7.146;2022-09-09T08:06:30;1.23;;;1.13;;
53313;SDS011;39202;51.468;7.146;2022-09-09T08:11:34;1.13;;;1.02;;
53313;SDS011;39202;51.468;7.146;2022-09-09T08:16:38;1.83;;;1.10;;
53313;SDS011;39202;51.468;7.146;2022-09-09T08:21:42;2.00;;;1.10;;
53313;SDS011;39202;51.468;7.146;2022-09-09T08:26:45;2.05;;;1.17;;
53313;SDS011;39202;51.468;7.146;2022-09-09T08:31:50;1.27;;;1.02;;
53313;SDS011;39202;51.468;7.146;2022-09-09T08:36:54;1.23;;;0.90;;
53313;SDS011;39202;51.468;7.146;2022-09-09T08:41:58;0.95;;;0.73;;
53313;SDS011;39202;51.468;7.146;2022-09-09T08:47:36;1.30;;;1.17;;
53313;SDS011;39202;51.468;7.146;2022-09-09T08:52:49;1.10;;;1.10;;
53313;SDS011;39202;51.468;7.146;2022-09-09T08:57:56;1.17;;;1.10;;
53313;SDS011;39202;51.468;7.146;2022-09-09T09:03:03;1.17;;;1.08;;
53313;SDS011;39202;51.468;7.146;2022-09-09T09:08:12;1.30;;;1.20;;
53313;SDS011;39202;51.468;7.146;2022-09-09T09:13:26;1.45;;;1.15;;
53313;SDS011;39202;51.468;7.146;2022-09-09T09:18:37;0.90;;;0.90;;
53313;SDS011;39202;51.468;7.146;2022-09-09T09:23:40;1.55;;;1.20;;
53313;SDS011;39202;51.468;7.146;2022-09-09T09:28:46;1.45;;;1.02;;
53313;SDS011;39202;51.468;7.146;2022-09-09T09:33:50;1.23;;;1.10;;
53313;SDS011;39202;51.468;7.146;2022-09-09T09:38:54;0.90;;;0.90;;
53313;SDS011;39202;51.468;7.146;2022-09-09T09:43:57;1.05;;;0.90;;
53313;SDS011;39202;51.468;7.146;2022-09-09T09:49:02;0.85;;;0.85;;
53313;SDS011;39202;51.468;7.146;2022-09-09T09:54:08;1.30;;;1.20;;
53313;SDS011;39202;51.468;7.146;2022-09-09T09:59:19;0.95;;;0.95;;
53313;SDS011;39202;51.468;7.146;2022-09-09T10:04:24;1.90;;;0.93;;
53313;SDS011;39202;51.468;7.146;2022-09-09T10:09:26;0.85;;;0.82;;
53313;SDS011;39202;51.468;7.146;2022-09-09T10:14:33;1.00;;;0.90;;
53313;SDS011;39202;51.468;7.146;2022-09-09T10:19:47;1.00;;;0.93;;
53313;SDS011;39202;51.468;7.146;2022-09-09T10:25:09;0.90;;;0.90;;
53313;SDS011;39202;51.468;7.146;2022-09-09T10:30:33;0.98;;;0.98;;
53313;SDS011;39202;51.468;7.146;2022-09-09T10:35:44;1.13;;;1.02;;
53313;SDS011;39202;51.468;7.146;2022-09-09T10:41:11;1.20;;;1.10;;
53313;SDS011;39202;51.468;7.146;2022-09-09T10:46:19;0.98;;;0.80;;
53313;SDS011;39202;51.468;7.146;2022-09-09T10:51:31;1.17;;;0.95;;
53313;SDS011;39202;51.468;7.146;2022-09-09T10:56:40;0.70;;;0.70;;
53313;SDS011;39202;51.468;7.146;2022-09-09T11:01:46;0.77;;;0.77;;
53313;SDS011;39202;51.468;7.146;2022-09-09T11:06:54;0.75;;;0.75;;
53313;SDS011;39202;51.468;7.146;2022-09-09T11:11:57;1.10;;;1.00;;
53313;SDS011;39202;51.468;7.146;2022-09-09T11:17:03;2.28;;;0.90;;
53313;SDS011;39202;51.468;7.146;2022-09-09T11:22:14;1.90;;;1.00;;
53313;SDS011;39202;51.468;7.146;2022-09-09T11:27:20;1.83;;;0.90;;
53313;SDS011;39202;51.468;7.146;2022-09-09T11:32:33;2.45;;;1.00;;
53313;SDS011;39202;51.468;7.146;2022-09-09T11:37:58;1.08;;;0.70;;
53313;SDS011;39202;51.468;7.146;2022-09-09T11:43:19;1.10;;;0.80;;
53313;SDS011;39202;51.468;7.146;2022-09-09T11:48:26;0.98;;;0.88;;
53313;SDS011;39202;51.468;7.146;2022-09-09T11:53:35;1.27;;;0.80;;
53313;SDS011;39202;51.468;7.146;2022-09-09T11:58:53;6.13;;;0.80;;
53313;SDS011;39202;51.468;7.146;2022-09-09T12:09:23;0.68;;;0.68;;
53313;SDS011;39202;51.468;7.146;2022-09-09T12:14:34;1.63;;;0.88;;
53313;SDS011;39202;51.468;7.146;2022-09-09T12:19:39;1.15;;;0.98;;
53313;SDS011;39202;51.468;7.146;2022-09-09T12:24:43;0.80;;;0.80;;
53313;SDS011;39202;51.468;7.146;2022-09-09T12:29:54;1.17;;;0.77;;
53313;SDS011;39202;51.468;7.146;2022-09-09T12:35:02;0.70;;;0.70;;
53313;SDS011;39202;51.468;7.146;2022-09-09T12:40:20;1.02;;;0.80;;
53313;SDS011;39202;51.468;7.146;2022-09-09T12:45:24;0.80;;;0.80;;
53313;SDS011;39202;51.468;7.146;2022-09-09T12:50:28;0.70;;;0.68;;
53313;SDS011;39202;51.468;7.146;2022-09-09T12:55:34;2.05;;;0.70;;
53313;SDS011;39202;51.468;7.146;2022-09-09T13:00:37;0.90;;;0.90;;
53313;SDS011;39202;51.468;7.146;2022-09-09T13:05:52;1.65;;;0.70;;
53313;SDS011;39202;51.468;7.146;2022-09-09T13:10:57;1.08;;;0.70;;
53313;SDS011;39202;51.468;7.146;2022-09-09T13:16:03;0.63;;;0.63;;
53313;SDS011;39202;51.468;7.146;2022-09-09T13:21:08;0.60;;;0.60;;
53313;SDS011;39202;51.468;7.146;2022-09-09T13:26:21;1.35;;;0.80;;
53313;SDS011;39202;51.468;7.146;2022-09-09T13:31:27;0.70;;;0.70;;
53313;SDS011;39202;51.468;7.146;2022-09-09T13:36:30;0.90;;;0.70;;
53313;SDS011;39202;51.468;7.146;2022-09-09T13:41:36;2.45;;;0.65;;
53313;SDS011;39202;51.468;7.146;2022-09-09T13:46:44;1.30;;;0.80;;
53313;SDS011;39202;51.468;7.146;2022-09-09T13:51:47;0.70;;;0.68;;
53313;SDS011;39202;51.468;7.146;2022-09-09T13:56:51;1.00;;;0.90;;
53313;SDS011;39202;51.468;7.146;2022-09-09T14:01:55;1.17;;;0.75;;
53313;SDS011;39202;51.468;7.146;2022-09-09T14:06:57;2.03;;;0.95;;
53313;SDS011;39202;51.468;7.146;2022-09-09T14:12:00;1.05;;;0.80;;
53313;SDS011;39202;51.468;7.146;2022-09-09T14:17:03;0.90;;;0.70;;
53313;SDS011;39202;51.468;7.146;2022-09-09T14:22:04;0.80;;;0.80;;
53313;SDS011;39202;51.468;7.146;2022-09-09T14:27:08;0.85;;;0.85;;
53313;SDS011;39202;51.468;7.146;2022-09-09T14:32:10;0.77;;;0.77;;
53313;SDS011;39202;51.468;7.146;2022-09-09T14:37:11;1.25;;;0.88;;
53313;SDS011;39202;51.468;7.146;2022-09-09T14:42:15;1.17;;;0.77;;
53313;SDS011;39202;51.468;7.146;2022-09-09T14:47:16;0.88;;;0.73;;
53313;SDS011;39202;51.468;7.146;2022-09-09T14:52:18;1.60;;;0.90;;
53313;SDS011;39202;51.468;7.146;2022-09-09T14:57:21;1.67;;;0.90;;
53313;SDS011;39202;51.468;7.146;2022-09-09T15:02:23;0.70;;;0.70;;
53313;SDS011;39202;51.468;7.146;2022-09-09T15:07:25;1.30;;;0.88;;
53313;SDS011;39202;51.468;7.146;2022-09-09T15:12:29;1.92;;;0.90;;
53313;SDS011;39202;51.468;7.146;2022-09-09T15:17:31;0.68;;;0.68;;
53313;SDS011;39202;51.468;7.146;2022-09-09T15:22:33;1.05;;;0.80;;
53313;SDS011;39202;51.468;7.146;2022-09-09T15:27:38;1.23;;;0.82;;
53313;SDS011;39202;51.468;7.146;2022-09-09T15:32:40;0.70;;;0.70;;
53313;SDS011;39202;51.468;7.146;2022-09-09T15:37:42;0.88;;;0.70;;
53313;SDS011;39202;51.468;7.146;2022-09-09T15:42:45;1.30;;;0.80;;
53313;SDS011;39202;51.468;7.146;2022-09-09T15:47:47;1.63;;;0.88;;
53313;SDS011;39202;51.468;7.146;2022-09-09T15:52:49;1.08;;;0.73;;
53313;SDS011;39202;51.468;7.146;2022-09-09T15:57:54;0.50;;;0.50;;
53313;SDS011;39202;51.468;7.146;2022-09-09T16:02:57;1.35;;;0.80;;
53313;SDS011;39202;51.468;7.146;2022-09-09T16:07:59;1.05;;;0.75;;
53313;SDS011;39202;51.468;7.146;2022-09-09T16:13:02;0.70;;;0.70;;
53313;SDS011;39202;51.468;7.146;2022-09-09T16:18:04;1.75;;;0.70;;
53313;SDS011;39202;51.468;7.146;2022-09-09T16:23:06;0.60;;;0.60;;
53313;SDS011;39202;51.468;7.146;2022-09-09T16:28:09;1.10;;;0.80;;
53313;SDS011;39202;51.468;7.146;2022-09-09T16:33:10;1.02;;;0.70;;
53313;SDS011;39202;51.468;7.146;2022-09-09T16:38:14;0.70;;;0.70;;
53313;SDS011;39202;51.468;7.146;2022-09-09T16:43:17;0.68;;;0.63;;
53313;SDS011;39202;51.468;7.146;2022-09-09T16:48:19;0.57;;;0.57;;
53313;SDS011;39202;51.468;7.146;2022-09-09T16:53:21;0.57;;;0.57;;
53313;SDS011;39202;51.468;7.146;2022-09-09T16:58:24;0.60;;;0.60;;
53313;SDS011;39202;51.468;7.146;2022-09-09T17:03:25;0.50;;;0.50;;
53313;SDS011;39202;51.468;7.146;2022-09-09T17:08:28;0.60;;;0.60;;
53313;SDS011;39202;51.468;7.146;2022-09-09T17:13:32;0.80;;;0.70;;
53313;SDS011;39202;51.468;7.146;2022-09-09T17:18:34;0.60;;;0.60;;
53313;SDS011;39202;51.468;7.146;2022-09-09T17:23:36;0.85;;;0.70;;
53313;SDS011;39202;51.468;7.146;2022-09-09T17:28:40;0.70;;;0.70;;
53313;SDS011;39202;51.468;7.146;2022-09-09T17:33:43;0.80;;;0.70;;
53313;SDS011;39202;51.468;7.146;2022-09-09T17:38:46;0.55;;;0.55;;
53313;SDS011;39202;51.468;7.146;2022-09-09T17:43:49;0.65;;;0.65;;
53313;SDS011;39202;51.468;7.146;2022-09-09T17:48:54;0.60;;;0.60;;
53313;SDS011;39202;51.468;7.146;2022-09-09T17:53:58;0.45;;;0.45;;
53313;SDS011;39202;51.468;7.146;2022-09-09T17:59:02;0.50;;;0.50;;
53313;SDS011;39202;51.468;7.146;2022-09-09T18:04:07;0.70;;;0.70;;
53313;SDS011;39202;51.468;7.146;2022-09-09T18:09:10;1.40;;;0.73;;
53313;SDS011;39202;51.468;7.146;2022-09-09T18:14:15;0.60;;;0.60;;
53313;SDS011;39202;51.468;7.146;2022-09-09T18:19:18;0.60;;;0.60;;
53313;SDS011;39202;51.468;7.146;2022-09-09T18:24:22;0.60;;;0.60;;
53313;SDS011;39202;51.468;7.146;2022-09-09T18:29:25;0.63;;;0.63;;
53313;SDS011;39202;51.468;7.146;2022-09-09T18:34:27;0.57;;;0.57;;
53313;SDS011;39202;51.468;7.146;2022-09-09T18:39:29;0.50;;;0.50;;
53313;SDS011;39202;51.468;7.146;2022-09-09T18:44:33;0.52;;;0.52;;
53313;SDS011;39202;51.468;7.146;2022-09-09T18:49:35;0.50;;;0.50;;
53313;SDS011;39202;51.468;7.146;2022-09-09T18:54:37;1.02;;;0.52;;
53313;SDS011;39202;51.468;7.146;2022-09-09T18:59:41;0.60;;;0.60;;
53313;SDS011;39202;51.468;7.146;2022-09-09T19:04:43;0.73;;;0.60;;
53313;SDS011;39202;51.468;7.146;2022-09-09T19:09:45;0.70;;;0.55;;
53313;SDS011;39202;51.468;7.146;2022-09-09T19:14:48;0.70;;;0.70;;
53313;SDS011;39202;51.468;7.146;2022-09-09T19:19:50;0.68;;;0.68;;
53313;SDS011;39202;51.468;7.146;2022-09-09T19:24:54;0.50;;;0.50;;
53313;SDS011;39202;51.468;7.146;2022-09-09T19:29:59;0.85;;;0.70;;
53313;SDS011;39202;51.468;7.146;2022-09-09T19:35:01;0.57;;;0.57;;
53313;SDS011;39202;51.468;7.146;2022-09-09T19:40:03;0.85;;;0.60;;
53313;SDS011;39202;51.468;7.146;2022-09-09T19:45:07;0.60;;;0.60;;
53313;SDS011;39202;51.468;7.146;2022-09-09T19:50:10;0.52;;;0.52;;
53313;SDS011;39202;51.468;7.146;2022-09-09T19:55:12;0.75;;;0.60;;
53313;SDS011;39202;51.468;7.146;2022-09-09T20:00:15;0.60;;;0.60;;
53313;SDS011;39202;51.468;7.146;2022-09-09T20:05:18;1.00;;;0.63;;
53313;SDS011;39202;51.468;7.146;2022-09-09T20:10:20;0.70;;;0.70;;
53313;SDS011;39202;51.468;7.146;2022-09-09T20:15:23;0.50;;;0.50;;
53313;SDS011;39202;51.468;7.146;2022-09-09T20:20:25;0.73;;;0.73;;
53313;SDS011;39202;51.468;7.146;2022-09-09T20:25:28;1.05;;;0.60;;
53313;SDS011;39202;51.468;7.146;2022-09-09T20:30:31;0.60;;;0.60;;
53313;SDS011;39202;51.468;7.146;2022-09-09T20:35:37;0.60;;;0.60;;
53313;SDS011;39202;51.468;7.146;2022-09-09T20:40:39;0.60;;;0.60;;
53313;SDS011;39202;51.468;7.146;2022-09-09T20:45:42;0.70;;;0.70;;
53313;SDS011;39202;51.468;7.146;2022-09-09T20:50:44;0.85;;;0.77;;
53313;SDS011;39202;51.468;7.146;2022-09-09T20:55:46;0.82;;;0.70;;
53313;SDS011;39202;51.468;7.146;2022-09-09T21:00:51;0.60;;;0.60;;
53313;SDS011;39202;51.468;7.146;2022-09-09T21:05:58;0.52;;;0.52;;
53313;SDS011;39202;51.468;7.146;2022-09-09T21:11:00;0.85;;;0.85;;
53313;SDS011;39202;51.468;7.146;2022-09-09T21:16:04;0.70;;;0.70;;
53313;SDS011;39202;51.468;7.146;2022-09-09T21:21:07;0.95;;;0.65;;
53313;SDS011;39202;51.468;7.146;2022-09-09T21:26:08;0.70;;;0.70;;
53313;SDS011;39202;51.468;7.146;2022-09-09T21:31:13;0.63;;;0.63;;
53313;SDS011;39202;51.468;7.146;2022-09-09T21:36:15;0.70;;;0.70;;
53313;SDS011;39202;51.468;7.146;2022-09-09T21:41:17;0.80;;;0.80;;
53313;SDS011;39202;51.468;7.146;2022-09-09T21:46:20;0.70;;;0.70;;
53313;SDS011;39202;51.468;7.146;2022-09-09T21:51:25;0.60;;;0.60;;
53313;SDS011;39202;51.468;7.146;2022-09-09T21:56:27;0.82;;;0.82;;
53313;SDS011;39202;51.468;7.146;2022-09-09T22:01:30;0.60;;;0.60;;
53313;SDS011;39202;51.468;7.146;2022-09-09T22:06:33;0.73;;;0.70;;
53313;SDS011;39202;51.468;7.146;2022-09-09T22:11:34;0.70;;;0.70;;
53313;SDS011;39202;51.468;7.146;2022-09-09T22:16:37;0.80;;;0.80;;
53313;SDS011;39202;51.468;7.146;2022-09-09T22:21:39;0.70;;;0.70;;
53313;SDS011;39202;51.468;7.146;2022-09-09T22:26:41;0.70;;;0.70;;
53313;SDS011;39202;51.468;7.146;2022-09-09T22:31:44;0.60;;;0.60;;
53313;SDS011;39202;51.468;7.146;2022-09-09T22:36:46;0.73;;;0.63;;
53313;SDS011;39202;51.468;7.146;2022-09-09T22:41:48;0.82;;;0.70;;
53313;SDS011;39202;51.468;7.146;2022-09-09T22:46:52;0.60;;;0.60;;
53313;SDS011;39202;51.468;7.146;2022-09-09T22:51:55;0.52;;;0.52;;
53313;SDS011;39202;51.468;7.146;2022-09-09T22:56:57;0.70;;;0.70;;
53313;SDS011;39202;51.468;7.146;2022-09-09T23:02:00;0.82;;;0.80;;
53313;SDS011;39202;51.468;7.146;2022-09-09T23:07:01;0.77;;;0.70;;
53313;SDS011;39202;51.468;7.146;2022-09-09T23:12:04;0.60;;;0.60;;
53313;SDS011;39202;51.468;7.146;2022-09-09T23:17:09;0.80;;;0.80;;
53313;SDS011;39202;51.468;7.146;2022-09-09T23:22:17;0.68;;;0.68;;
53313;SDS011;39202;51.468;7.146;2022-09-09T23:27:20;1.00;;;0.60;;
53313;SDS011;39202;51.468;7.146;2022-09-09T23:32:23;0.82;;;0.60;;
53313;SDS011;39202;51.468;7.146;2022-09-09T23:37:25;0.70;;;0.70;;
53313;SDS011;39202;51.468;7.146;2022-09-09T23:42:27;1.23;;;0.70;;
53313;SDS011;39202;51.468;7.146;2022-09-09T23:47:33;0.60;;;0.60;;
53313;SDS011;39202;51.468;7.146;2022-09-09T23:52:35;0.70;;;0.60;;
53313;SDS011;39202;51.468;7.146;2022-09-09T23:57:40;0.60;;;0.60;;
